首页
METAR-TAF:

METAR-TAF

机场 :

卡昂, 法国

纬度: 49-11N, 经度: 000-27W, 海拔: 78米

当前天气观测

该预报发布于22分钟前的10:30 UTC
风速12节,风向西转西南
温度 20°C
湿度 88%
气压 1014 hPa
能见度10公里或以上
多云层高于1300英尺
多云层高于2000英尺
阴天层高于3200英尺

METAR: LFRK 141030Z AUTO 24012KT 9999 BKN013 BKN020 OVC032 20/18 Q1014 TEMPO BKN009

时间: 12:52 (10:52 UTC)

预报

该预报发布于1小时和23分钟前的09:29 UTC
预报有效从14日的 09点(UTC)到 14日的 18点(UTC)
风速10节,风向西
能见度10公里或以上
阴天层高于1200英尺
短暂存在
从 14日的 09点(UTC)到 14日的 13点(UTC)
多云层高于900英尺
短暂存在
从 14日的 13点(UTC)到 14日的 18点(UTC)
能見度: 4500
多云层高于900英尺
多云层高于2000英尺, 塔状积云.
阵雨

TAF: LFRK 140929Z 1409/1418 26010KT 9999 OVC012 TEMPO 1409/1413 BKN009 TEMPO 1413/1418 4500 SHRA BKN009 BKN020TCU

超过4000个机场的气象观测和天气预报(METAR&TAF报告)。

可查询的气象台以黄色和红色小点在地图上表示。

将鼠标移到小点上方,可查看气象台名称。

然后点击查看天气观测和预报。

如需切换地图:点击带黑十字的绿色按钮放大地图;点击带横线的绿色按钮缩小地图;或者点击绿色箭头查看邻近地区的地图。


METAR-TAF: